sensor_id;sensor_type;location;lat;lon;timestamp;P1;durP1;ratioP1;P2;durP2;ratioP2
80908;SDS011;70358;56.958;24.126;2023-10-31T00:01:31;5.50;;;2.40;;
80908;SDS011;70358;56.958;24.126;2023-10-31T00:03:56;5.35;;;2.28;;
80908;SDS011;70358;56.958;24.126;2023-10-31T00:06:22;5.93;;;2.25;;
80908;SDS011;70358;56.958;24.126;2023-10-31T00:08:47;4.93;;;2.20;;
80908;SDS011;70358;56.958;24.126;2023-10-31T00:11:13;5.45;;;2.10;;
80908;SDS011;70358;56.958;24.126;2023-10-31T00:13:38;4.82;;;2.40;;
80908;SDS011;70358;56.958;24.126;2023-10-31T00:16:04;4.00;;;2.03;;
80908;SDS011;70358;56.958;24.126;2023-10-31T00:18:30;4.45;;;2.20;;
80908;SDS011;70358;56.958;24.126;2023-10-31T00:20:55;4.10;;;2.30;;
80908;SDS011;70358;56.958;24.126;2023-10-31T00:23:21;4.57;;;2.30;;
80908;SDS011;70358;56.958;24.126;2023-10-31T00:25:47;4.10;;;2.10;;
80908;SDS011;70358;56.958;24.126;2023-10-31T00:28:12;5.15;;;2.45;;
80908;SDS011;70358;56.958;24.126;2023-10-31T00:30:38;4.32;;;2.15;;
80908;SDS011;70358;56.958;24.126;2023-10-31T00:33:03;4.22;;;2.20;;
80908;SDS011;70358;56.958;24.126;2023-10-31T00:35:29;4.05;;;2.30;;
80908;SDS011;70358;56.958;24.126;2023-10-31T00:37:55;3.90;;;2.13;;
80908;SDS011;70358;56.958;24.126;2023-10-31T00:40:21;4.93;;;2.15;;
80908;SDS011;70358;56.958;24.126;2023-10-31T00:42:46;4.50;;;2.20;;
80908;SDS011;70358;56.958;24.126;2023-10-31T00:45:12;4.15;;;2.38;;
80908;SDS011;70358;56.958;24.126;2023-10-31T00:47:37;3.55;;;1.95;;
80908;SDS011;70358;56.958;24.126;2023-10-31T00:50:03;5.07;;;2.40;;
80908;SDS011;70358;56.958;24.126;2023-10-31T00:52:28;3.13;;;1.83;;
80908;SDS011;70358;56.958;24.126;2023-10-31T00:54:54;4.07;;;2.10;;
80908;SDS011;70358;56.958;24.126;2023-10-31T00:57:19;4.53;;;2.30;;
80908;SDS011;70358;56.958;24.126;2023-10-31T00:59:45;4.93;;;2.50;;
80908;SDS011;70358;56.958;24.126;2023-10-31T01:02:10;4.45;;;2.25;;
80908;SDS011;70358;56.958;24.126;2023-10-31T01:04:36;3.80;;;2.05;;
80908;SDS011;70358;56.958;24.126;2023-10-31T01:07:02;4.80;;;2.45;;
80908;SDS011;70358;56.958;24.126;2023-10-31T01:09:27;5.13;;;2.30;;
80908;SDS011;70358;56.958;24.126;2023-10-31T01:11:53;4.30;;;1.90;;
80908;SDS011;70358;56.958;24.126;2023-10-31T01:14:19;4.20;;;2.08;;
80908;SDS011;70358;56.958;24.126;2023-10-31T01:16:44;5.57;;;2.00;;
80908;SDS011;70358;56.958;24.126;2023-10-31T01:19:10;5.47;;;2.00;;
80908;SDS011;70358;56.958;24.126;2023-10-31T01:21:35;4.57;;;2.20;;
80908;SDS011;70358;56.958;24.126;2023-10-31T01:24:01;5.90;;;2.00;;
80908;SDS011;70358;56.958;24.126;2023-10-31T01:26:26;4.88;;;2.15;;
80908;SDS011;70358;56.958;24.126;2023-10-31T01:28:52;4.20;;;2.03;;
80908;SDS011;70358;56.958;24.126;2023-10-31T01:31:17;3.47;;;2.10;;
80908;SDS011;70358;56.958;24.126;2023-10-31T01:33:43;5.03;;;2.10;;
80908;SDS011;70358;56.958;24.126;2023-10-31T01:36:08;4.65;;;2.38;;
80908;SDS011;70358;56.958;24.126;2023-10-31T01:38:35;5.18;;;2.00;;
80908;SDS011;70358;56.958;24.126;2023-10-31T01:41:01;4.05;;;2.28;;
80908;SDS011;70358;56.958;24.126;2023-10-31T01:43:33;3.15;;;1.70;;
80908;SDS011;70358;56.958;24.126;2023-10-31T01:46:02;3.88;;;2.03;;
80908;SDS011;70358;56.958;24.126;2023-10-31T01:48:29;5.15;;;1.95;;
80908;SDS011;70358;56.958;24.126;2023-10-31T01:50:56;5.35;;;2.40;;
80908;SDS011;70358;56.958;24.126;2023-10-31T01:53:22;4.25;;;2.13;;
80908;SDS011;70358;56.958;24.126;2023-10-31T01:55:49;4.40;;;2.20;;
80908;SDS011;70358;56.958;24.126;2023-10-31T01:58:15;4.22;;;1.95;;
80908;SDS011;70358;56.958;24.126;2023-10-31T02:00:41;4.68;;;2.10;;
80908;SDS011;70358;56.958;24.126;2023-10-31T02:03:07;4.63;;;2.40;;
80908;SDS011;70358;56.958;24.126;2023-10-31T02:05:33;3.97;;;2.25;;
80908;SDS011;70358;56.958;24.126;2023-10-31T02:07:59;4.90;;;1.80;;
80908;SDS011;70358;56.958;24.126;2023-10-31T02:10:25;3.80;;;2.25;;
80908;SDS011;70358;56.958;24.126;2023-10-31T02:12:51;3.50;;;2.15;;
80908;SDS011;70358;56.958;24.126;2023-10-31T02:15:16;5.03;;;2.10;;
80908;SDS011;70358;56.958;24.126;2023-10-31T02:17:42;3.88;;;1.80;;
80908;SDS011;70358;56.958;24.126;2023-10-31T02:20:07;3.85;;;2.33;;
80908;SDS011;70358;56.958;24.126;2023-10-31T02:22:33;4.65;;;1.95;;
80908;SDS011;70358;56.958;24.126;2023-10-31T02:24:58;3.28;;;2.00;;
80908;SDS011;70358;56.958;24.126;2023-10-31T02:27:24;4.87;;;2.83;;
80908;SDS011;70358;56.958;24.126;2023-10-31T02:29:49;5.17;;;2.13;;
80908;SDS011;70358;56.958;24.126;2023-10-31T02:32:14;5.23;;;2.07;;
80908;SDS011;70358;56.958;24.126;2023-10-31T02:34:40;4.20;;;1.90;;
80908;SDS011;70358;56.958;24.126;2023-10-31T02:37:06;3.60;;;1.70;;
80908;SDS011;70358;56.958;24.126;2023-10-31T02:39:32;3.78;;;2.00;;
80908;SDS011;70358;56.958;24.126;2023-10-31T02:41:57;3.47;;;1.90;;
80908;SDS011;70358;56.958;24.126;2023-10-31T02:44:23;5.27;;;2.10;;
80908;SDS011;70358;56.958;24.126;2023-10-31T02:46:49;4.50;;;2.65;;
80908;SDS011;70358;56.958;24.126;2023-10-31T02:49:14;4.30;;;2.35;;
80908;SDS011;70358;56.958;24.126;2023-10-31T02:51:40;4.88;;;1.83;;
80908;SDS011;70358;56.958;24.126;2023-10-31T02:54:05;3.63;;;2.08;;
80908;SDS011;70358;56.958;24.126;2023-10-31T02:56:31;4.30;;;1.38;;
80908;SDS011;70358;56.958;24.126;2023-10-31T02:58:56;7.38;;;2.20;;
80908;SDS011;70358;56.958;24.126;2023-10-31T03:01:21;5.77;;;1.70;;
80908;SDS011;70358;56.958;24.126;2023-10-31T03:03:47;4.55;;;2.10;;
80908;SDS011;70358;56.958;24.126;2023-10-31T03:06:12;3.85;;;1.80;;
80908;SDS011;70358;56.958;24.126;2023-10-31T03:08:38;4.50;;;2.42;;
80908;SDS011;70358;56.958;24.126;2023-10-31T03:11:03;4.32;;;1.83;;
80908;SDS011;70358;56.958;24.126;2023-10-31T03:13:29;4.88;;;1.80;;
80908;SDS011;70358;56.958;24.126;2023-10-31T03:15:54;5.00;;;1.98;;
80908;SDS011;70358;56.958;24.126;2023-10-31T03:18:19;3.80;;;1.67;;
80908;SDS011;70358;56.958;24.126;2023-10-31T03:20:45;3.45;;;1.75;;
80908;SDS011;70358;56.958;24.126;2023-10-31T03:23:13;3.78;;;1.70;;
80908;SDS011;70358;56.958;24.126;2023-10-31T03:25:39;4.35;;;2.00;;
80908;SDS011;70358;56.958;24.126;2023-10-31T03:28:06;3.92;;;1.90;;
80908;SDS011;70358;56.958;24.126;2023-10-31T03:30:42;4.32;;;2.10;;
80908;SDS011;70358;56.958;24.126;2023-10-31T03:33:07;4.22;;;1.65;;
80908;SDS011;70358;56.958;24.126;2023-10-31T03:35:32;3.07;;;1.83;;
80908;SDS011;70358;56.958;24.126;2023-10-31T03:37:58;6.10;;;1.83;;
80908;SDS011;70358;56.958;24.126;2023-10-31T03:40:23;6.93;;;2.30;;
80908;SDS011;70358;56.958;24.126;2023-10-31T03:42:50;4.30;;;1.83;;
80908;SDS011;70358;56.958;24.126;2023-10-31T03:45:15;5.22;;;1.83;;
80908;SDS011;70358;56.958;24.126;2023-10-31T03:47:40;4.90;;;2.30;;
80908;SDS011;70358;56.958;24.126;2023-10-31T03:50:07;4.55;;;2.00;;
80908;SDS011;70358;56.958;24.126;2023-10-31T03:52:35;4.07;;;1.77;;
80908;SDS011;70358;56.958;24.126;2023-10-31T03:55:00;3.27;;;1.80;;
80908;SDS011;70358;56.958;24.126;2023-10-31T03:57:25;4.43;;;2.00;;
80908;SDS011;70358;56.958;24.126;2023-10-31T03:59:51;3.65;;;2.10;;
80908;SDS011;70358;56.958;24.126;2023-10-31T04:02:16;3.83;;;1.67;;
80908;SDS011;70358;56.958;24.126;2023-10-31T04:04:42;4.75;;;1.70;;
80908;SDS011;70358;56.958;24.126;2023-10-31T04:07:07;5.50;;;2.05;;
80908;SDS011;70358;56.958;24.126;2023-10-31T04:09:33;4.05;;;1.80;;
80908;SDS011;70358;56.958;24.126;2023-10-31T04:11:58;6.32;;;1.90;;
80908;SDS011;70358;56.958;24.126;2023-10-31T04:14:23;4.38;;;1.83;;
80908;SDS011;70358;56.958;24.126;2023-10-31T04:16:49;3.22;;;1.75;;
80908;SDS011;70358;56.958;24.126;2023-10-31T04:19:14;5.88;;;2.00;;
80908;SDS011;70358;56.958;24.126;2023-10-31T04:21:39;4.82;;;1.80;;
80908;SDS011;70358;56.958;24.126;2023-10-31T04:24:06;2.65;;;1.60;;
80908;SDS011;70358;56.958;24.126;2023-10-31T04:26:31;5.43;;;1.73;;
80908;SDS011;70358;56.958;24.126;2023-10-31T04:28:57;4.33;;;1.77;;
80908;SDS011;70358;56.958;24.126;2023-10-31T04:31:22;2.75;;;1.58;;
80908;SDS011;70358;56.958;24.126;2023-10-31T04:33:48;3.97;;;1.40;;
80908;SDS011;70358;56.958;24.126;2023-10-31T04:36:13;4.80;;;2.17;;
80908;SDS011;70358;56.958;24.126;2023-10-31T04:38:38;4.07;;;2.03;;
80908;SDS011;70358;56.958;24.126;2023-10-31T04:41:05;4.47;;;1.63;;
80908;SDS011;70358;56.958;24.126;2023-10-31T04:43:30;4.13;;;1.70;;
80908;SDS011;70358;56.958;24.126;2023-10-31T04:45:56;4.67;;;1.97;;
80908;SDS011;70358;56.958;24.126;2023-10-31T04:48:21;3.17;;;1.50;;
80908;SDS011;70358;56.958;24.126;2023-10-31T04:50:47;3.58;;;1.67;;
80908;SDS011;70358;56.958;24.126;2023-10-31T04:53:12;2.78;;;1.70;;
80908;SDS011;70358;56.958;24.126;2023-10-31T04:55:38;3.50;;;1.58;;
80908;SDS011;70358;56.958;24.126;2023-10-31T04:58:03;3.92;;;1.70;;
80908;SDS011;70358;56.958;24.126;2023-10-31T05:00:29;5.95;;;1.88;;
80908;SDS011;70358;56.958;24.126;2023-10-31T05:02:55;4.40;;;1.90;;
80908;SDS011;70358;56.958;24.126;2023-10-31T05:05:21;3.38;;;1.70;;
80908;SDS011;70358;56.958;24.126;2023-10-31T05:07:47;4.30;;;1.63;;
80908;SDS011;70358;56.958;24.126;2023-10-31T05:10:12;3.88;;;2.03;;
80908;SDS011;70358;56.958;24.126;2023-10-31T05:12:38;5.78;;;2.10;;
80908;SDS011;70358;56.958;24.126;2023-10-31T05:15:03;3.42;;;1.77;;
80908;SDS011;70358;56.958;24.126;2023-10-31T05:17:29;4.82;;;2.08;;
80908;SDS011;70358;56.958;24.126;2023-10-31T05:19:55;4.13;;;2.03;;
80908;SDS011;70358;56.958;24.126;2023-10-31T05:22:20;4.88;;;2.03;;
80908;SDS011;70358;56.958;24.126;2023-10-31T05:24:45;4.20;;;2.15;;
80908;SDS011;70358;56.958;24.126;2023-10-31T05:27:11;6.00;;;2.15;;
80908;SDS011;70358;56.958;24.126;2023-10-31T05:29:38;3.42;;;1.90;;
80908;SDS011;70358;56.958;24.126;2023-10-31T05:32:04;3.63;;;1.65;;
80908;SDS011;70358;56.958;24.126;2023-10-31T05:34:30;5.32;;;2.08;;
80908;SDS011;70358;56.958;24.126;2023-10-31T05:36:55;4.80;;;1.95;;
80908;SDS011;70358;56.958;24.126;2023-10-31T05:39:20;5.65;;;2.28;;
80908;SDS011;70358;56.958;24.126;2023-10-31T05:41:46;6.40;;;2.20;;
80908;SDS011;70358;56.958;24.126;2023-10-31T05:44:11;4.30;;;2.30;;
80908;SDS011;70358;56.958;24.126;2023-10-31T05:46:37;3.47;;;2.10;;
80908;SDS011;70358;56.958;24.126;2023-10-31T05:49:10;5.13;;;2.00;;
80908;SDS011;70358;56.958;24.126;2023-10-31T05:51:37;6.70;;;2.58;;
80908;SDS011;70358;56.958;24.126;2023-10-31T05:54:04;5.30;;;2.10;;
80908;SDS011;70358;56.958;24.126;2023-10-31T05:56:32;5.00;;;2.42;;
80908;SDS011;70358;56.958;24.126;2023-10-31T05:58:57;4.57;;;2.25;;
80908;SDS011;70358;56.958;24.126;2023-10-31T06:01:23;4.43;;;2.33;;
80908;SDS011;70358;56.958;24.126;2023-10-31T06:03:48;4.72;;;2.63;;
80908;SDS011;70358;56.958;24.126;2023-10-31T06:06:14;6.20;;;2.37;;
80908;SDS011;70358;56.958;24.126;2023-10-31T06:08:39;5.28;;;2.75;;
80908;SDS011;70358;56.958;24.126;2023-10-31T06:11:06;5.18;;;2.70;;
80908;SDS011;70358;56.958;24.126;2023-10-31T06:13:32;4.50;;;2.70;;
80908;SDS011;70358;56.958;24.126;2023-10-31T06:15:59;6.45;;;3.08;;
80908;SDS011;70358;56.958;24.126;2023-10-31T06:18:25;6.63;;;2.92;;
80908;SDS011;70358;56.958;24.126;2023-10-31T06:20:51;4.68;;;2.40;;
80908;SDS011;70358;56.958;24.126;2023-10-31T06:23:17;4.68;;;2.17;;
80908;SDS011;70358;56.958;24.126;2023-10-31T06:25:44;6.63;;;3.05;;
80908;SDS011;70358;56.958;24.126;2023-10-31T06:28:09;7.07;;;2.92;;
80908;SDS011;70358;56.958;24.126;2023-10-31T06:30:35;6.07;;;2.88;;
80908;SDS011;70358;56.958;24.126;2023-10-31T06:33:01;7.85;;;3.17;;
80908;SDS011;70358;56.958;24.126;2023-10-31T06:35:27;5.70;;;2.60;;
80908;SDS011;70358;56.958;24.126;2023-10-31T06:37:55;4.55;;;2.92;;
80908;SDS011;70358;56.958;24.126;2023-10-31T06:40:25;5.47;;;2.60;;
80908;SDS011;70358;56.958;24.126;2023-10-31T06:42:50;5.53;;;2.78;;
80908;SDS011;70358;56.958;24.126;2023-10-31T06:45:16;6.05;;;2.47;;
80908;SDS011;70358;56.958;24.126;2023-10-31T06:47:41;4.47;;;2.85;;
80908;SDS011;70358;56.958;24.126;2023-10-31T06:50:07;3.75;;;2.47;;
80908;SDS011;70358;56.958;24.126;2023-10-31T06:52:33;6.40;;;2.78;;
80908;SDS011;70358;56.958;24.126;2023-10-31T06:54:59;4.47;;;2.88;;
80908;SDS011;70358;56.958;24.126;2023-10-31T07:00:13;7.40;;;4.07;;
80908;SDS011;70358;56.958;24.126;2023-10-31T07:02:39;5.15;;;2.97;;
80908;SDS011;70358;56.958;24.126;2023-10-31T07:05:05;5.80;;;2.92;;
80908;SDS011;70358;56.958;24.126;2023-10-31T07:07:30;6.25;;;2.70;;
80908;SDS011;70358;56.958;24.126;2023-10-31T07:09:56;9.57;;;2.97;;
80908;SDS011;70358;56.958;24.126;2023-10-31T07:12:22;5.05;;;3.10;;
80908;SDS011;70358;56.958;24.126;2023-10-31T07:14:48;5.60;;;2.80;;
80908;SDS011;70358;56.958;24.126;2023-10-31T07:17:13;8.25;;;2.75;;
80908;SDS011;70358;56.958;24.126;2023-10-31T07:19:41;5.82;;;2.80;;
80908;SDS011;70358;56.958;24.126;2023-10-31T07:22:09;6.43;;;3.08;;
80908;SDS011;70358;56.958;24.126;2023-10-31T07:24:34;6.82;;;3.42;;
80908;SDS011;70358;56.958;24.126;2023-10-31T07:27:01;7.28;;;3.05;;
80908;SDS011;70358;56.958;24.126;2023-10-31T07:29:26;5.53;;;3.10;;
80908;SDS011;70358;56.958;24.126;2023-10-31T07:31:52;6.13;;;2.83;;
80908;SDS011;70358;56.958;24.126;2023-10-31T07:34:17;5.38;;;2.92;;
80908;SDS011;70358;56.958;24.126;2023-10-31T07:36:43;6.38;;;2.97;;
80908;SDS011;70358;56.958;24.126;2023-10-31T07:39:08;5.78;;;2.88;;
80908;SDS011;70358;56.958;24.126;2023-10-31T07:41:34;7.45;;;3.22;;
80908;SDS011;70358;56.958;24.126;2023-10-31T07:43:59;9.75;;;3.60;;
80908;SDS011;70358;56.958;24.126;2023-10-31T07:46:25;7.25;;;3.08;;
80908;SDS011;70358;56.958;24.126;2023-10-31T07:48:50;5.40;;;2.78;;
80908;SDS011;70358;56.958;24.126;2023-10-31T07:51:16;6.93;;;3.08;;
80908;SDS011;70358;56.958;24.126;2023-10-31T07:53:41;9.95;;;2.97;;
80908;SDS011;70358;56.958;24.126;2023-10-31T07:56:16;4.97;;;3.08;;
80908;SDS011;70358;56.958;24.126;2023-10-31T07:58:43;7.05;;;3.40;;
80908;SDS011;70358;56.958;24.126;2023-10-31T08:01:11;7.30;;;3.03;;
80908;SDS011;70358;56.958;24.126;2023-10-31T08:03:36;7.95;;;3.00;;
80908;SDS011;70358;56.958;24.126;2023-10-31T08:06:03;5.82;;;2.97;;
80908;SDS011;70358;56.958;24.126;2023-10-31T08:08:30;5.53;;;2.88;;
80908;SDS011;70358;56.958;24.126;2023-10-31T08:10:56;8.07;;;3.25;;
80908;SDS011;70358;56.958;24.126;2023-10-31T08:13:23;9.65;;;3.45;;
80908;SDS011;70358;56.958;24.126;2023-10-31T08:15:49;7.43;;;3.22;;
80908;SDS011;70358;56.958;24.126;2023-10-31T08:18:14;6.20;;;3.25;;
80908;SDS011;70358;56.958;24.126;2023-10-31T08:20:40;9.03;;;3.03;;
80908;SDS011;70358;56.958;24.126;2023-10-31T08:23:05;7.28;;;3.33;;
80908;SDS011;70358;56.958;24.126;2023-10-31T08:25:31;6.82;;;3.30;;
80908;SDS011;70358;56.958;24.126;2023-10-31T08:27:56;6.63;;;3.47;;
80908;SDS011;70358;56.958;24.126;2023-10-31T08:30:22;6.47;;;3.03;;
80908;SDS011;70358;56.958;24.126;2023-10-31T08:32:47;7.03;;;2.95;;
80908;SDS011;70358;56.958;24.126;2023-10-31T08:35:12;8.98;;;3.40;;
80908;SDS011;70358;56.958;24.126;2023-10-31T08:37:38;8.70;;;3.40;;
80908;SDS011;70358;56.958;24.126;2023-10-31T08:40:03;5.85;;;2.80;;
80908;SDS011;70358;56.958;24.126;2023-10-31T08:42:29;6.93;;;2.85;;
80908;SDS011;70358;56.958;24.126;2023-10-31T08:44:55;6.43;;;3.17;;
80908;SDS011;70358;56.958;24.126;2023-10-31T08:47:21;6.72;;;3.08;;
80908;SDS011;70358;56.958;24.126;2023-10-31T08:49:46;6.00;;;3.10;;
80908;SDS011;70358;56.958;24.126;2023-10-31T08:52:12;6.80;;;3.15;;
80908;SDS011;70358;56.958;24.126;2023-10-31T08:54:37;7.20;;;3.25;;
80908;SDS011;70358;56.958;24.126;2023-10-31T08:57:03;6.05;;;2.88;;
80908;SDS011;70358;56.958;24.126;2023-10-31T08:59:28;7.13;;;3.65;;
80908;SDS011;70358;56.958;24.126;2023-10-31T09:01:54;6.13;;;4.05;;
80908;SDS011;70358;56.958;24.126;2023-10-31T09:04:19;7.10;;;3.30;;
80908;SDS011;70358;56.958;24.126;2023-10-31T09:06:44;5.63;;;3.03;;
80908;SDS011;70358;56.958;24.126;2023-10-31T09:09:10;6.53;;;3.38;;
80908;SDS011;70358;56.958;24.126;2023-10-31T09:11:35;7.38;;;3.05;;
80908;SDS011;70358;56.958;24.126;2023-10-31T09:14:01;7.03;;;3.50;;
80908;SDS011;70358;56.958;24.126;2023-10-31T09:16:26;6.75;;;3.00;;
80908;SDS011;70358;56.958;24.126;2023-10-31T09:18:52;4.85;;;3.03;;
80908;SDS011;70358;56.958;24.126;2023-10-31T09:21:17;7.68;;;3.30;;
80908;SDS011;70358;56.958;24.126;2023-10-31T09:23:43;7.25;;;2.78;;
80908;SDS011;70358;56.958;24.126;2023-10-31T09:26:08;10.32;;;3.28;;
80908;SDS011;70358;56.958;24.126;2023-10-31T09:28:35;5.70;;;3.10;;
80908;SDS011;70358;56.958;24.126;2023-10-31T09:31:01;7.10;;;3.13;;
80908;SDS011;70358;56.958;24.126;2023-10-31T09:33:27;7.28;;;3.58;;
80908;SDS011;70358;56.958;24.126;2023-10-31T09:35:52;10.00;;;3.13;;
80908;SDS011;70358;56.958;24.126;2023-10-31T09:38:18;7.30;;;3.85;;
80908;SDS011;70358;56.958;24.126;2023-10-31T09:40:43;6.78;;;3.63;;
80908;SDS011;70358;56.958;24.126;2023-10-31T09:43:08;7.85;;;3.40;;
80908;SDS011;70358;56.958;24.126;2023-10-31T09:45:34;6.85;;;2.80;;
80908;SDS011;70358;56.958;24.126;2023-10-31T09:48:01;7.68;;;3.28;;
80908;SDS011;70358;56.958;24.126;2023-10-31T09:50:30;12.07;;;3.55;;
80908;SDS011;70358;56.958;24.126;2023-10-31T09:52:56;5.70;;;3.03;;
80908;SDS011;70358;56.958;24.126;2023-10-31T09:55:31;7.88;;;3.40;;
80908;SDS011;70358;56.958;24.126;2023-10-31T09:58:00;5.50;;;3.25;;
80908;SDS011;70358;56.958;24.126;2023-10-31T10:00:27;6.32;;;3.08;;
80908;SDS011;70358;56.958;24.126;2023-10-31T10:02:52;7.30;;;3.72;;
80908;SDS011;70358;56.958;24.126;2023-10-31T10:07:44;11.50;;;4.07;;
80908;SDS011;70358;56.958;24.126;2023-10-31T10:10:11;8.60;;;3.28;;
80908;SDS011;70358;56.958;24.126;2023-10-31T10:12:37;5.95;;;2.75;;
80908;SDS011;70358;56.958;24.126;2023-10-31T10:15:02;7.40;;;3.78;;
80908;SDS011;70358;56.958;24.126;2023-10-31T10:17:28;7.72;;;3.67;;
80908;SDS011;70358;56.958;24.126;2023-10-31T10:20:12;11.82;;;3.45;;
80908;SDS011;70358;56.958;24.126;2023-10-31T10:22:46;7.55;;;3.28;;
80908;SDS011;70358;56.958;24.126;2023-10-31T10:25:16;8.48;;;2.92;;
80908;SDS011;70358;56.958;24.126;2023-10-31T10:27:43;8.68;;;2.97;;
80908;SDS011;70358;56.958;24.126;2023-10-31T10:30:09;6.55;;;3.30;;
80908;SDS011;70358;56.958;24.126;2023-10-31T10:32:35;5.97;;;3.10;;
80908;SDS011;70358;56.958;24.126;2023-10-31T10:35:01;8.07;;;2.90;;
80908;SDS011;70358;56.958;24.126;2023-10-31T10:37:26;9.40;;;3.33;;
80908;SDS011;70358;56.958;24.126;2023-10-31T10:39:53;8.02;;;3.25;;
80908;SDS011;70358;56.958;24.126;2023-10-31T10:42:54;7.93;;;2.95;;
80908;SDS011;70358;56.958;24.126;2023-10-31T10:45:13;10.80;;;3.10;;
80908;SDS011;70358;56.958;24.126;2023-10-31T10:47:41;8.63;;;3.58;;
80908;SDS011;70358;56.958;24.126;2023-10-31T10:50:11;7.32;;;2.88;;
80908;SDS011;70358;56.958;24.126;2023-10-31T10:55:45;9.27;;;3.25;;
80908;SDS011;70358;56.958;24.126;2023-10-31T10:58:26;10.13;;;3.42;;
80908;SDS011;70358;56.958;24.126;2023-10-31T11:00:57;6.80;;;3.75;;
80908;SDS011;70358;56.958;24.126;2023-10-31T11:03:23;8.95;;;3.72;;
80908;SDS011;70358;56.958;24.126;2023-10-31T11:05:49;7.90;;;3.85;;
80908;SDS011;70358;56.958;24.126;2023-10-31T11:08:15;7.57;;;3.10;;
80908;SDS011;70358;56.958;24.126;2023-10-31T11:10:41;6.00;;;3.42;;
80908;SDS011;70358;56.958;24.126;2023-10-31T11:13:07;8.15;;;3.13;;
80908;SDS011;70358;56.958;24.126;2023-10-31T11:15:41;7.03;;;3.10;;
80908;SDS011;70358;56.958;24.126;2023-10-31T11:18:27;10.27;;;3.45;;
80908;SDS011;70358;56.958;24.126;2023-10-31T11:20:53;20.85;;;4.13;;
80908;SDS011;70358;56.958;24.126;2023-10-31T11:23:18;11.65;;;3.47;;
80908;SDS011;70358;56.958;24.126;2023-10-31T11:25:44;10.55;;;3.70;;
80908;SDS011;70358;56.958;24.126;2023-10-31T11:28:14;18.48;;;3.75;;
80908;SDS011;70358;56.958;24.126;2023-10-31T11:30:42;14.07;;;4.20;;
80908;SDS011;70358;56.958;24.126;2023-10-31T11:33:14;10.00;;;3.60;;
80908;SDS011;70358;56.958;24.126;2023-10-31T11:35:50;7.50;;;3.42;;
80908;SDS011;70358;56.958;24.126;2023-10-31T11:38:29;10.10;;;3.40;;
80908;SDS011;70358;56.958;24.126;2023-10-31T11:41:01;9.68;;;3.40;;
80908;SDS011;70358;56.958;24.126;2023-10-31T11:43:39;18.65;;;3.60;;
80908;SDS011;70358;56.958;24.126;2023-10-31T11:46:20;10.07;;;3.60;;
80908;SDS011;70358;56.958;24.126;2023-10-31T11:48:54;9.02;;;3.80;;
80908;SDS011;70358;56.958;24.126;2023-10-31T11:51:31;9.55;;;3.78;;
80908;SDS011;70358;56.958;24.126;2023-10-31T11:54:15;8.30;;;4.22;;
80908;SDS011;70358;56.958;24.126;2023-10-31T11:56:42;10.57;;;3.80;;
80908;SDS011;70358;56.958;24.126;2023-10-31T11:59:07;10.23;;;3.67;;
80908;SDS011;70358;56.958;24.126;2023-10-31T12:01:48;10.13;;;3.40;;
80908;SDS011;70358;56.958;24.126;2023-10-31T12:04:23;11.10;;;3.88;;
80908;SDS011;70358;56.958;24.126;2023-10-31T12:07:18;14.82;;;4.18;;
80908;SDS011;70358;56.958;24.126;2023-10-31T12:09:47;12.90;;;3.30;;
80908;SDS011;70358;56.958;24.126;2023-10-31T12:12:13;6.22;;;3.25;;
80908;SDS011;70358;56.958;24.126;2023-10-31T12:14:39;12.00;;;4.18;;
80908;SDS011;70358;56.958;24.126;2023-10-31T12:17:04;11.02;;;4.13;;
80908;SDS011;70358;56.958;24.126;2023-10-31T12:19:32;13.55;;;4.15;;
80908;SDS011;70358;56.958;24.126;2023-10-31T12:21:58;10.52;;;3.65;;
80908;SDS011;70358;56.958;24.126;2023-10-31T12:24:24;9.20;;;3.58;;
80908;SDS011;70358;56.958;24.126;2023-10-31T12:26:50;15.98;;;4.15;;
80908;SDS011;70358;56.958;24.126;2023-10-31T12:29:20;9.60;;;3.88;;
80908;SDS011;70358;56.958;24.126;2023-10-31T12:31:52;13.65;;;3.85;;
80908;SDS011;70358;56.958;24.126;2023-10-31T12:34:21;13.95;;;3.50;;
80908;SDS011;70358;56.958;24.126;2023-10-31T12:36:48;10.68;;;3.55;;
80908;SDS011;70358;56.958;24.126;2023-10-31T12:39:21;8.05;;;3.38;;
80908;SDS011;70358;56.958;24.126;2023-10-31T12:41:48;12.48;;;3.70;;
80908;SDS011;70358;56.958;24.126;2023-10-31T12:44:15;12.93;;;4.03;;
80908;SDS011;70358;56.958;24.126;2023-10-31T12:46:46;10.57;;;3.70;;
80908;SDS011;70358;56.958;24.126;2023-10-31T12:49:12;9.95;;;3.50;;
80908;SDS011;70358;56.958;24.126;2023-10-31T12:51:56;11.45;;;3.67;;
80908;SDS011;70358;56.958;24.126;2023-10-31T12:57:27;6.47;;;3.15;;
80908;SDS011;70358;56.958;24.126;2023-10-31T12:59:55;11.43;;;3.80;;
80908;SDS011;70358;56.958;24.126;2023-10-31T13:02:20;7.95;;;3.53;;
80908;SDS011;70358;56.958;24.126;2023-10-31T13:04:46;17.00;;;4.13;;
80908;SDS011;70358;56.958;24.126;2023-10-31T13:07:11;15.77;;;3.70;;
80908;SDS011;70358;56.958;24.126;2023-10-31T13:09:37;12.27;;;3.85;;
80908;SDS011;70358;56.958;24.126;2023-10-31T13:12:08;6.10;;;3.10;;
80908;SDS011;70358;56.958;24.126;2023-10-31T13:14:37;10.18;;;3.40;;
80908;SDS011;70358;56.958;24.126;2023-10-31T13:17:04;15.55;;;4.43;;
80908;SDS011;70358;56.958;24.126;2023-10-31T13:19:30;15.48;;;4.00;;
80908;SDS011;70358;56.958;24.126;2023-10-31T13:21:56;10.50;;;3.97;;
80908;SDS011;70358;56.958;24.126;2023-10-31T13:24:21;9.95;;;3.85;;
80908;SDS011;70358;56.958;24.126;2023-10-31T13:26:47;10.50;;;4.05;;
80908;SDS011;70358;56.958;24.126;2023-10-31T13:29:16;10.70;;;3.90;;
80908;SDS011;70358;56.958;24.126;2023-10-31T13:31:42;13.63;;;3.67;;
80908;SDS011;70358;56.958;24.126;2023-10-31T13:34:08;11.13;;;3.28;;
80908;SDS011;70358;56.958;24.126;2023-10-31T13:36:33;10.10;;;3.42;;
80908;SDS011;70358;56.958;24.126;2023-10-31T13:39:02;13.43;;;3.85;;
80908;SDS011;70358;56.958;24.126;2023-10-31T13:41:27;11.43;;;4.93;;
80908;SDS011;70358;56.958;24.126;2023-10-31T13:43:53;9.60;;;3.72;;
80908;SDS011;70358;56.958;24.126;2023-10-31T13:46:19;10.77;;;3.97;;
80908;SDS011;70358;56.958;24.126;2023-10-31T13:48:44;13.32;;;3.88;;
80908;SDS011;70358;56.958;24.126;2023-10-31T13:51:11;7.95;;;3.40;;
80908;SDS011;70358;56.958;24.126;2023-10-31T13:53:36;8.80;;;3.67;;
80908;SDS011;70358;56.958;24.126;2023-10-31T13:56:02;11.07;;;4.20;;
80908;SDS011;70358;56.958;24.126;2023-10-31T13:58:27;8.77;;;3.85;;
80908;SDS011;70358;56.958;24.126;2023-10-31T14:00:53;7.53;;;3.63;;
80908;SDS011;70358;56.958;24.126;2023-10-31T14:03:18;7.87;;;3.47;;
80908;SDS011;70358;56.958;24.126;2023-10-31T14:05:44;10.85;;;3.50;;
80908;SDS011;70358;56.958;24.126;2023-10-31T14:08:09;7.03;;;3.42;;
80908;SDS011;70358;56.958;24.126;2023-10-31T14:10:35;9.73;;;3.38;;
80908;SDS011;70358;56.958;24.126;2023-10-31T14:13:01;9.07;;;4.00;;
80908;SDS011;70358;56.958;24.126;2023-10-31T14:15:26;13.47;;;3.20;;
80908;SDS011;70358;56.958;24.126;2023-10-31T14:17:51;10.63;;;3.70;;
80908;SDS011;70358;56.958;24.126;2023-10-31T14:20:17;7.80;;;3.47;;
80908;SDS011;70358;56.958;24.126;2023-10-31T14:22:47;11.75;;;3.70;;
80908;SDS011;70358;56.958;24.126;2023-10-31T14:25:13;11.52;;;3.15;;
80908;SDS011;70358;56.958;24.126;2023-10-31T14:27:40;8.35;;;3.40;;
80908;SDS011;70358;56.958;24.126;2023-10-31T14:30:06;9.65;;;3.53;;
80908;SDS011;70358;56.958;24.126;2023-10-31T14:32:32;10.52;;;3.60;;
80908;SDS011;70358;56.958;24.126;2023-10-31T14:34:57;13.60;;;4.00;;
80908;SDS011;70358;56.958;24.126;2023-10-31T14:37:23;6.25;;;3.13;;
80908;SDS011;70358;56.958;24.126;2023-10-31T14:39:48;8.10;;;4.20;;
80908;SDS011;70358;56.958;24.126;2023-10-31T14:42:14;8.93;;;4.25;;